sensor_id;sensor_type;location;lat;lon;timestamp;pressure;altitude;pressure_sealevel;temperature;humidity
59043;BME280;44826;51.596;5.624;2022-12-24T00:01:14;100534.84;;;9.17;89.96
59043;BME280;44826;51.596;5.624;2022-12-24T00:03:39;100540.06;;;9.16;90.04
59043;BME280;44826;51.596;5.624;2022-12-24T00:06:09;100545.31;;;9.14;90.32
59043;BME280;44826;51.596;5.624;2022-12-24T00:08:37;100543.66;;;9.10;90.44
59043;BME280;44826;51.596;5.624;2022-12-24T00:11:03;100552.34;;;9.09;90.36
59043;BME280;44826;51.596;5.624;2022-12-24T00:13:28;100554.22;;;9.04;90.70
59043;BME280;44826;51.596;5.624;2022-12-24T00:15:53;100558.59;;;9.00;91.03
59043;BME280;44826;51.596;5.624;2022-12-24T00:18:19;100553.53;;;8.95;91.04
59043;BME280;44826;51.596;5.624;2022-12-24T00:20:47;100563.09;;;8.93;91.43
59043;BME280;44826;51.596;5.624;2022-12-24T00:23:12;100565.69;;;8.93;91.15
59043;BME280;44826;51.596;5.624;2022-12-24T00:25:38;100572.63;;;8.91;91.58
59043;BME280;44826;51.596;5.624;2022-12-24T00:28:03;100570.09;;;8.90;91.20
59043;BME280;44826;51.596;5.624;2022-12-24T00:30:28;100564.91;;;8.88;91.83
59043;BME280;44826;51.596;5.624;2022-12-24T00:32:54;100570.22;;;8.85;91.91
59043;BME280;44826;51.596;5.624;2022-12-24T00:35:19;100578.88;;;8.84;92.05
59043;BME280;44826;51.596;5.624;2022-12-24T00:37:46;100585.78;;;8.84;92.18
59043;BME280;44826;51.596;5.624;2022-12-24T00:40:12;100578.06;;;8.80;92.25
59043;BME280;44826;51.596;5.624;2022-12-24T00:42:37;100585.84;;;8.80;92.27
59043;BME280;44826;51.596;5.624;2022-12-24T00:45:03;100586.72;;;8.81;92.30
59043;BME280;44826;51.596;5.624;2022-12-24T00:47:28;100596.22;;;8.82;92.22
59043;BME280;44826;51.596;5.624;2022-12-24T00:49:54;100610.78;;;8.88;92.42
59043;BME280;44826;51.596;5.624;2022-12-24T00:52:19;100603.03;;;8.86;92.24
59043;BME280;44826;51.596;5.624;2022-12-24T00:54:44;100609.94;;;8.87;92.17
59043;BME280;44826;51.596;5.624;2022-12-24T00:57:09;100605.59;;;8.88;92.16
59043;BME280;44826;51.596;5.624;2022-12-24T00:59:35;100619.41;;;8.88;92.07
59043;BME280;44826;51.596;5.624;2022-12-24T01:02:00;100629.00;;;8.86;91.94
59043;BME280;44826;51.596;5.624;2022-12-24T01:04:25;100628.13;;;8.86;91.95
59043;BME280;44826;51.596;5.624;2022-12-24T01:07:09;100637.56;;;8.88;92.05
59043;BME280;44826;51.596;5.624;2022-12-24T01:09:34;100633.25;;;8.89;92.10
59043;BME280;44826;51.596;5.624;2022-12-24T01:12:00;100638.50;;;8.86;92.03
59043;BME280;44826;51.596;5.624;2022-12-24T01:14:25;100631.59;;;8.85;91.91
59043;BME280;44826;51.596;5.624;2022-12-24T01:16:50;100637.66;;;8.85;91.72
59043;BME280;44826;51.596;5.624;2022-12-24T01:19:16;100642.75;;;8.88;91.86
59043;BME280;44826;51.596;5.624;2022-12-24T01:21:41;100640.13;;;8.90;91.55
59043;BME280;44826;51.596;5.624;2022-12-24T01:24:08;100642.75;;;8.88;91.55
59043;BME280;44826;51.596;5.624;2022-12-24T01:26:34;100634.13;;;8.88;91.57
59043;BME280;44826;51.596;5.624;2022-12-24T01:28:59;100644.56;;;8.86;91.45
59043;BME280;44826;51.596;5.624;2022-12-24T01:31:25;100654.94;;;8.85;91.40
59043;BME280;44826;51.596;5.624;2022-12-24T01:33:50;100665.38;;;8.83;91.43
59043;BME280;44826;51.596;5.624;2022-12-24T01:36:15;100674.03;;;8.82;91.35
59043;BME280;44826;51.596;5.624;2022-12-24T01:38:41;100664.59;;;8.79;91.27
59043;BME280;44826;51.596;5.624;2022-12-24T01:41:13;100675.03;;;8.76;91.65
59043;BME280;44826;51.596;5.624;2022-12-24T01:43:57;100674.16;;;8.76;91.07
59043;BME280;44826;51.596;5.624;2022-12-24T01:46:28;100671.59;;;8.74;91.73
59043;BME280;44826;51.596;5.624;2022-12-24T01:48:57;100668.19;;;8.72;91.78
59043;BME280;44826;51.596;5.624;2022-12-24T01:51:38;100676.00;;;8.71;91.88
59043;BME280;44826;51.596;5.624;2022-12-24T01:54:10;100680.38;;;8.69;91.84
59043;BME280;44826;51.596;5.624;2022-12-24T01:56:39;100678.72;;;8.63;91.97
59043;BME280;44826;51.596;5.624;2022-12-24T01:59:09;100681.38;;;8.61;91.90
59043;BME280;44826;51.596;5.624;2022-12-24T02:01:38;100684.88;;;8.59;92.06
59043;BME280;44826;51.596;5.624;2022-12-24T02:04:11;100688.41;;;8.55;92.04
59043;BME280;44826;51.596;5.624;2022-12-24T02:06:37;100690.13;;;8.54;92.24
59043;BME280;44826;51.596;5.624;2022-12-24T02:09:02;100702.22;;;8.55;92.36
59043;BME280;44826;51.596;5.624;2022-12-24T02:11:28;100701.31;;;8.58;92.41
59043;BME280;44826;51.596;5.624;2022-12-24T02:13:59;100705.59;;;8.60;92.52
59043;BME280;44826;51.596;5.624;2022-12-24T02:16:52;100694.34;;;8.61;92.69
59043;BME280;44826;51.596;5.624;2022-12-24T02:27:53;100713.22;;;8.68;92.92
59043;BME280;44826;51.596;5.624;2022-12-24T02:30:26;100705.38;;;8.71;92.74
59043;BME280;44826;51.596;5.624;2022-12-24T02:33:17;100714.81;;;8.74;92.89
59043;BME280;44826;51.596;5.624;2022-12-24T02:35:56;100718.25;;;8.76;93.09
59043;BME280;44826;51.596;5.624;2022-12-24T02:38:27;100715.63;;;8.77;93.05
59043;BME280;44826;51.596;5.624;2022-12-24T02:41:12;100718.19;;;8.79;93.24
59043;BME280;44826;51.596;5.624;2022-12-24T02:43:41;100726.84;;;8.79;93.31
59043;BME280;44826;51.596;5.624;2022-12-24T02:46:15;100722.50;;;8.80;93.46
59043;BME280;44826;51.596;5.624;2022-12-24T02:48:43;100720.75;;;8.80;93.51
59043;BME280;44826;51.596;5.624;2022-12-24T02:51:11;100732.81;;;8.81;93.70
59043;BME280;44826;51.596;5.624;2022-12-24T02:53:37;100729.34;;;8.83;93.87
59043;BME280;44826;51.596;5.624;2022-12-24T02:59:15;100727.56;;;8.86;94.11
59043;BME280;44826;51.596;5.624;2022-12-24T03:10:19;100732.75;;;8.86;94.42
59043;BME280;44826;51.596;5.624;2022-12-24T03:12:49;100727.56;;;8.86;94.57
59043;BME280;44826;51.596;5.624;2022-12-24T03:15:20;100737.94;;;8.86;94.46
59043;BME280;44826;51.596;5.624;2022-12-24T03:17:48;100735.25;;;8.89;94.58
59043;BME280;44826;51.596;5.624;2022-12-24T03:20:24;100739.56;;;8.90;94.49
59043;BME280;44826;51.596;5.624;2022-12-24T03:22:50;100734.47;;;8.87;94.66
59043;BME280;44826;51.596;5.624;2022-12-24T03:25:16;100732.66;;;8.89;94.94
59043;BME280;44826;51.596;5.624;2022-12-24T03:27:42;100740.44;;;8.89;94.80
59043;BME280;44826;51.596;5.624;2022-12-24T03:30:12;100741.28;;;8.91;94.80
59043;BME280;44826;51.596;5.624;2022-12-24T03:32:37;100735.19;;;8.92;94.86
59043;BME280;44826;51.596;5.624;2022-12-24T03:35:04;100737.81;;;8.92;95.06
59043;BME280;44826;51.596;5.624;2022-12-24T03:37:29;100741.28;;;8.91;95.12
59043;BME280;44826;51.596;5.624;2022-12-24T03:39:54;100739.56;;;8.90;95.04
59043;BME280;44826;51.596;5.624;2022-12-24T03:42:20;100739.56;;;8.90;95.23
59043;BME280;44826;51.596;5.624;2022-12-24T03:44:45;100747.34;;;8.92;95.44
59043;BME280;44826;51.596;5.624;2022-12-24T03:47:10;100745.63;;;8.91;95.28
59043;BME280;44826;51.596;5.624;2022-12-24T03:49:36;100742.16;;;8.92;95.30
59043;BME280;44826;51.596;5.624;2022-12-24T03:52:01;100749.03;;;8.93;95.37
59043;BME280;44826;51.596;5.624;2022-12-24T03:54:26;100748.16;;;8.94;95.50
59043;BME280;44826;51.596;5.624;2022-12-24T03:56:52;100749.88;;;8.93;95.39
59043;BME280;44826;51.596;5.624;2022-12-24T03:59:17;100754.25;;;8.93;95.32
59043;BME280;44826;51.596;5.624;2022-12-24T04:01:42;100756.84;;;8.93;95.54
59043;BME280;44826;51.596;5.624;2022-12-24T04:04:07;100763.72;;;8.94;95.49
59043;BME280;44826;51.596;5.624;2022-12-24T04:06:33;100759.38;;;8.96;95.78
59043;BME280;44826;51.596;5.624;2022-12-24T04:08:58;100755.84;;;8.97;95.96
59043;BME280;44826;51.596;5.624;2022-12-24T04:11:26;100761.91;;;8.98;95.95
59043;BME280;44826;51.596;5.624;2022-12-24T04:13:51;100760.16;;;9.00;96.08
59043;BME280;44826;51.596;5.624;2022-12-24T04:16:16;100756.69;;;9.01;95.97
59043;BME280;44826;51.596;5.624;2022-12-24T04:18:42;100761.88;;;9.01;96.20
59043;BME280;44826;51.596;5.624;2022-12-24T04:21:08;100780.81;;;9.04;96.11
59043;BME280;44826;51.596;5.624;2022-12-24T04:23:35;100779.09;;;9.05;95.96
59043;BME280;44826;51.596;5.624;2022-12-24T04:26:02;100780.75;;;9.07;96.23
59043;BME280;44826;51.596;5.624;2022-12-24T04:28:29;100777.28;;;9.07;96.05
59043;BME280;44826;51.596;5.624;2022-12-24T04:30:58;100788.50;;;9.09;96.11
59043;BME280;44826;51.596;5.624;2022-12-24T04:33:24;100780.72;;;9.09;96.26
59043;BME280;44826;51.596;5.624;2022-12-24T04:35:49;100780.72;;;9.09;95.89
59043;BME280;44826;51.596;5.624;2022-12-24T04:38:14;100785.94;;;9.07;96.04
59043;BME280;44826;51.596;5.624;2022-12-24T04:40:39;100787.66;;;9.08;95.68
59043;BME280;44826;51.596;5.624;2022-12-24T04:43:05;100786.78;;;9.08;96.14
59043;BME280;44826;51.596;5.624;2022-12-24T04:45:31;100792.81;;;9.10;96.21
59043;BME280;44826;51.596;5.624;2022-12-24T04:47:56;100797.16;;;9.09;96.13
59043;BME280;44826;51.596;5.624;2022-12-24T04:50:21;100798.03;;;9.08;96.29
59043;BME280;44826;51.596;5.624;2022-12-24T04:52:47;100798.00;;;9.10;96.10
59043;BME280;44826;51.596;5.624;2022-12-24T04:55:12;100797.16;;;9.09;96.39
59043;BME280;44826;51.596;5.624;2022-12-24T04:57:37;100798.00;;;9.10;96.34
59043;BME280;44826;51.596;5.624;2022-12-24T05:00:04;100796.28;;;9.09;96.41
59043;BME280;44826;51.596;5.624;2022-12-24T05:02:30;100798.06;;;9.07;96.30
59043;BME280;44826;51.596;5.624;2022-12-24T05:04:55;100795.50;;;9.05;96.10
59043;BME280;44826;51.596;5.624;2022-12-24T05:07:20;100799.84;;;9.05;96.06
59043;BME280;44826;51.596;5.624;2022-12-24T05:09:45;100808.56;;;9.01;96.29
59043;BME280;44826;51.596;5.624;2022-12-24T05:12:11;100805.16;;;8.99;96.17
59043;BME280;44826;51.596;5.624;2022-12-24T05:14:36;100810.34;;;8.99;96.25
59043;BME280;44826;51.596;5.624;2022-12-24T05:17:01;100809.47;;;8.98;96.27
59043;BME280;44826;51.596;5.624;2022-12-24T05:19:27;100818.13;;;8.99;96.23
59043;BME280;44826;51.596;5.624;2022-12-24T05:21:52;100815.53;;;8.99;96.50
59043;BME280;44826;51.596;5.624;2022-12-24T05:24:35;100820.66;;;9.02;96.55
59043;BME280;44826;51.596;5.624;2022-12-24T05:27:20;100806.81;;;9.01;96.32
59043;BME280;44826;51.596;5.624;2022-12-24T05:29:45;100808.56;;;9.01;96.30
59043;BME280;44826;51.596;5.624;2022-12-24T05:32:11;100797.31;;;9.00;96.31
59043;BME280;44826;51.596;5.624;2022-12-24T05:34:36;100799.97;;;8.99;96.22
59043;BME280;44826;51.596;5.624;2022-12-24T05:37:01;100801.66;;;9.00;96.39
59043;BME280;44826;51.596;5.624;2022-12-24T05:39:27;100804.31;;;8.96;96.40
59043;BME280;44826;51.596;5.624;2022-12-24T05:41:52;100800.06;;;8.92;96.28
59043;BME280;44826;51.596;5.624;2022-12-24T05:44:17;100807.91;;;8.91;96.40
59043;BME280;44826;51.596;5.624;2022-12-24T05:46:43;100808.78;;;8.88;96.27
59043;BME280;44826;51.596;5.624;2022-12-24T05:49:09;100820.91;;;8.88;96.46
59043;BME280;44826;51.596;5.624;2022-12-24T05:51:34;100811.47;;;8.85;96.23
59043;BME280;44826;51.596;5.624;2022-12-24T05:53:59;100814.06;;;8.84;96.45
59043;BME280;44826;51.596;5.624;2022-12-24T05:56:25;100824.50;;;8.82;96.44
59043;BME280;44826;51.596;5.624;2022-12-24T05:58:53;100826.25;;;8.80;96.39
59043;BME280;44826;51.596;5.624;2022-12-24T06:01:20;100841.88;;;8.78;96.41
59043;BME280;44826;51.596;5.624;2022-12-24T06:03:46;100848.75;;;8.79;96.62
59043;BME280;44826;51.596;5.624;2022-12-24T06:06:16;100836.63;;;8.80;96.58
59043;BME280;44826;51.596;5.624;2022-12-24T06:08:44;100847.84;;;8.82;96.72
59043;BME280;44826;51.596;5.624;2022-12-24T06:11:11;100846.09;;;8.83;96.55
59043;BME280;44826;51.596;5.624;2022-12-24T06:13:37;100846.09;;;8.83;96.57
59043;BME280;44826;51.596;5.624;2022-12-24T06:16:04;100850.44;;;8.82;96.47
59043;BME280;44826;51.596;5.624;2022-12-24T06:18:31;100857.34;;;8.83;96.65
59043;BME280;44826;51.596;5.624;2022-12-24T06:20:57;100853.03;;;8.82;96.50
59043;BME280;44826;51.596;5.624;2022-12-24T06:23:23;100856.47;;;8.83;96.44
59043;BME280;44826;51.596;5.624;2022-12-24T06:25:49;100861.66;;;8.83;96.54
59043;BME280;44826;51.596;5.624;2022-12-24T06:28:15;100846.97;;;8.83;96.50
59043;BME280;44826;51.596;5.624;2022-12-24T06:30:40;100841.78;;;8.83;96.38
59043;BME280;44826;51.596;5.624;2022-12-24T06:33:06;100855.56;;;8.85;96.44
59043;BME280;44826;51.596;5.624;2022-12-24T06:35:32;100858.13;;;8.87;96.29
59043;BME280;44826;51.596;5.624;2022-12-24T06:37:57;100861.59;;;8.86;96.23
59043;BME280;44826;51.596;5.624;2022-12-24T06:40:24;100862.47;;;8.86;96.12
59043;BME280;44826;51.596;5.624;2022-12-24T06:42:50;100877.16;;;8.86;96.05
59043;BME280;44826;51.596;5.624;2022-12-24T06:45:15;100886.63;;;8.88;95.95
59043;BME280;44826;51.596;5.624;2022-12-24T06:47:40;100885.75;;;8.89;95.89
59043;BME280;44826;51.596;5.624;2022-12-24T06:50:06;100886.63;;;8.88;95.68
59043;BME280;44826;51.596;5.624;2022-12-24T06:52:31;100891.81;;;8.88;95.46
59043;BME280;44826;51.596;5.624;2022-12-24T06:54:56;100890.13;;;8.86;95.52
59043;BME280;44826;51.596;5.624;2022-12-24T06:57:22;100888.41;;;8.86;95.39
59043;BME280;44826;51.596;5.624;2022-12-24T06:59:47;100889.28;;;8.85;95.34
59043;BME280;44826;51.596;5.624;2022-12-24T07:02:12;100888.47;;;8.83;95.11
59043;BME280;44826;51.596;5.624;2022-12-24T07:04:37;100889.31;;;8.84;95.00
59043;BME280;44826;51.596;5.624;2022-12-24T07:07:03;100889.34;;;8.82;95.13
59043;BME280;44826;51.596;5.624;2022-12-24T07:09:28;100896.25;;;8.81;94.90
59043;BME280;44826;51.596;5.624;2022-12-24T07:11:53;100903.16;;;8.83;95.05
59043;BME280;44826;51.596;5.624;2022-12-24T07:14:18;100894.53;;;8.80;94.78
59043;BME280;44826;51.596;5.624;2022-12-24T07:16:44;100896.28;;;8.80;94.81
59043;BME280;44826;51.596;5.624;2022-12-24T07:19:10;100908.44;;;8.78;94.63
59043;BME280;44826;51.596;5.624;2022-12-24T07:21:35;100907.59;;;8.76;94.79
59043;BME280;44826;51.596;5.624;2022-12-24T07:24:01;100909.34;;;8.74;94.60
59043;BME280;44826;51.596;5.624;2022-12-24T07:26:26;100900.75;;;8.72;94.61
59043;BME280;44826;51.596;5.624;2022-12-24T07:28:51;100909.47;;;8.68;94.57
59043;BME280;44826;51.596;5.624;2022-12-24T07:31:16;100907.81;;;8.63;94.70
59043;BME280;44826;51.596;5.624;2022-12-24T07:33:42;100913.94;;;8.59;94.72
59043;BME280;44826;51.596;5.624;2022-12-24T07:36:09;100927.81;;;8.57;94.70
59043;BME280;44826;51.596;5.624;2022-12-24T07:38:38;100932.13;;;8.56;94.64
59043;BME280;44826;51.596;5.624;2022-12-24T07:41:03;100940.84;;;8.52;94.92
59043;BME280;44826;51.596;5.624;2022-12-24T07:43:31;100944.31;;;8.51;94.94
59043;BME280;44826;51.596;5.624;2022-12-24T07:45:57;100944.38;;;8.48;94.93
59043;BME280;44826;51.596;5.624;2022-12-24T07:48:24;100944.38;;;8.45;95.08
59043;BME280;44826;51.596;5.624;2022-12-24T07:50:50;100953.03;;;8.44;94.97
59043;BME280;44826;51.596;5.624;2022-12-24T07:53:15;100947.88;;;8.41;95.09
59043;BME280;44826;51.596;5.624;2022-12-24T07:55:41;100956.53;;;8.40;95.32
59043;BME280;44826;51.596;5.624;2022-12-24T07:58:06;100956.59;;;8.37;95.41
59043;BME280;44826;51.596;5.624;2022-12-24T08:00:31;100963.56;;;8.34;95.38
59043;BME280;44826;51.596;5.624;2022-12-24T08:02:56;100975.63;;;8.34;95.47
59043;BME280;44826;51.596;5.624;2022-12-24T08:05:25;100975.66;;;8.32;95.63
59043;BME280;44826;51.596;5.624;2022-12-24T08:07:51;100983.44;;;8.32;95.81
59043;BME280;44826;51.596;5.624;2022-12-24T08:10:17;100987.78;;;8.30;95.96
59043;BME280;44826;51.596;5.624;2022-12-24T08:12:42;100989.50;;;8.31;96.04
59043;BME280;44826;51.596;5.624;2022-12-24T08:15:07;101005.03;;;8.34;96.18
59043;BME280;44826;51.596;5.624;2022-12-24T08:17:33;101011.94;;;8.35;95.96
59043;BME280;44826;51.596;5.624;2022-12-24T08:19:58;101013.66;;;8.37;96.03
59043;BME280;44826;51.596;5.624;2022-12-24T08:22:23;101010.22;;;8.34;96.15
59043;BME280;44826;51.596;5.624;2022-12-24T08:24:48;101027.41;;;8.39;96.17
59043;BME280;44826;51.596;5.624;2022-12-24T08:27:14;101017.91;;;8.38;96.10
59043;BME280;44826;51.596;5.624;2022-12-24T08:29:39;101029.16;;;8.38;96.12
59043;BME280;44826;51.596;5.624;2022-12-24T08:32:04;101019.66;;;8.37;96.29
59043;BME280;44826;51.596;5.624;2022-12-24T08:34:30;101024.00;;;8.37;96.30
59043;BME280;44826;51.596;5.624;2022-12-24T08:36:55;101022.25;;;8.37;96.34
59043;BME280;44826;51.596;5.624;2022-12-24T08:39:20;101037.78;;;8.39;96.30
59043;BME280;44826;51.596;5.624;2022-12-24T08:41:45;101021.34;;;8.40;96.30
59043;BME280;44826;51.596;5.624;2022-12-24T08:44:11;101026.53;;;8.40;96.50
59043;BME280;44826;51.596;5.624;2022-12-24T08:46:36;101024.78;;;8.42;96.47
59043;BME280;44826;51.596;5.624;2022-12-24T08:49:01;101031.72;;;8.41;96.52
59043;BME280;44826;51.596;5.624;2022-12-24T08:51:27;101028.25;;;8.42;96.42
59043;BME280;44826;51.596;5.624;2022-12-24T08:53:52;101042.91;;;8.45;96.35
59043;BME280;44826;51.596;5.624;2022-12-24T08:56:17;101044.63;;;8.46;96.49
59043;BME280;44826;51.596;5.624;2022-12-24T08:58:43;101051.50;;;8.47;96.47
59043;BME280;44826;51.596;5.624;2022-12-24T09:01:17;101052.38;;;8.49;96.71
59043;BME280;44826;51.596;5.624;2022-12-24T09:03:42;101060.13;;;8.50;96.72
59043;BME280;44826;51.596;5.624;2022-12-24T09:06:08;101067.03;;;8.53;96.80
59043;BME280;44826;51.596;5.624;2022-12-24T09:08:33;101071.31;;;8.54;96.92
59043;BME280;44826;51.596;5.624;2022-12-24T09:11:07;101071.28;;;8.57;96.71
59043;BME280;44826;51.596;5.624;2022-12-24T09:13:33;101073.00;;;8.60;96.90
59043;BME280;44826;51.596;5.624;2022-12-24T09:15:59;101080.75;;;8.61;96.59
59043;BME280;44826;51.596;5.624;2022-12-24T09:18:24;101078.09;;;8.63;96.58
59043;BME280;44826;51.596;5.624;2022-12-24T09:20:50;101084.13;;;8.67;96.51
59043;BME280;44826;51.596;5.624;2022-12-24T09:23:15;101075.44;;;8.69;96.50
59043;BME280;44826;51.596;5.624;2022-12-24T09:25:41;101089.22;;;8.73;96.77
59043;BME280;44826;51.596;5.624;2022-12-24T09:28:06;101097.78;;;8.78;96.48
59043;BME280;44826;51.596;5.624;2022-12-24T09:30:31;101102.06;;;8.80;96.45
59043;BME280;44826;51.596;5.624;2022-12-24T09:32:57;101115.84;;;8.86;96.65
59043;BME280;44826;51.596;5.624;2022-12-24T09:35:22;101107.13;;;8.91;96.41
59043;BME280;44826;51.596;5.624;2022-12-24T09:37:47;101113.94;;;8.99;96.34
59043;BME280;44826;51.596;5.624;2022-12-24T09:40:30;101116.50;;;9.02;96.42
59043;BME280;44826;51.596;5.624;2022-12-24T09:42:58;101113.03;;;9.03;96.10
59043;BME280;44826;51.596;5.624;2022-12-24T09:45:33;101125.13;;;9.04;96.02
59043;BME280;44826;51.596;5.624;2022-12-24T09:48:24;101125.94;;;9.07;96.18
59043;BME280;44826;51.596;5.624;2022-12-24T09:53:49;101123.25;;;9.12;95.98
59043;BME280;44826;51.596;5.624;2022-12-24T09:56:21;101129.25;;;9.16;95.90
59043;BME280;44826;51.596;5.624;2022-12-24T09:58:58;101128.38;;;9.18;95.85
59043;BME280;44826;51.596;5.624;2022-12-24T10:01:24;101138.72;;;9.21;95.88
59043;BME280;44826;51.596;5.624;2022-12-24T10:03:50;101140.34;;;9.25;95.70
59043;BME280;44826;51.596;5.624;2022-12-24T10:06:21;101146.38;;;9.27;95.62
59043;BME280;44826;51.596;5.624;2022-12-24T10:09:08;101147.19;;;9.33;95.72
59043;BME280;44826;51.596;5.624;2022-12-24T10:11:42;101151.44;;;9.37;95.27
59043;BME280;44826;51.596;5.624;2022-12-24T10:14:38;101154.88;;;9.39;95.02
59043;BME280;44826;51.596;5.624;2022-12-24T10:17:16;101153.13;;;9.39;94.93
59043;BME280;44826;51.596;5.624;2022-12-24T10:22:52;101141.81;;;9.42;94.65
59043;BME280;44826;51.596;5.624;2022-12-24T10:25:27;101142.66;;;9.44;94.48
59043;BME280;44826;51.596;5.624;2022-12-24T10:27:57;101148.72;;;9.43;94.42
59043;BME280;44826;51.596;5.624;2022-12-24T10:30:24;101139.22;;;9.42;94.48
59043;BME280;44826;51.596;5.624;2022-12-24T10:32:52;101135.78;;;9.40;94.52
59043;BME280;44826;51.596;5.624;2022-12-24T10:35:31;101135.78;;;9.40;94.37
59043;BME280;44826;51.596;5.624;2022-12-24T10:37:59;101141.91;;;9.39;94.25
59043;BME280;44826;51.596;5.624;2022-12-24T10:40:51;101146.22;;;9.38;94.46
59043;BME280;44826;51.596;5.624;2022-12-24T10:43:23;101145.38;;;9.38;94.34
59043;BME280;44826;51.596;5.624;2022-12-24T10:45:55;101150.53;;;9.39;94.30
59043;BME280;44826;51.596;5.624;2022-12-24T10:48:30;101158.28;;;9.43;94.33
59043;BME280;44826;51.596;5.624;2022-12-24T10:51:01;101157.31;;;9.48;94.53
59043;BME280;44826;51.596;5.624;2022-12-24T10:56:10;101153.63;;;9.63;93.95
59043;BME280;44826;51.596;5.624;2022-12-24T10:58:36;101156.13;;;9.66;94.02
59043;BME280;44826;51.596;5.624;2022-12-24T11:01:06;101154.31;;;9.73;93.69
59043;BME280;44826;51.596;5.624;2022-12-24T11:03:33;101148.06;;;9.83;93.42
59043;BME280;44826;51.596;5.624;2022-12-24T11:06:06;101165.25;;;9.91;93.28
59043;BME280;44826;51.596;5.624;2022-12-24T11:08:32;101155.69;;;9.93;92.96
59043;BME280;44826;51.596;5.624;2022-12-24T11:11:01;101159.16;;;9.93;92.54
59043;BME280;44826;51.596;5.624;2022-12-24T11:13:28;101162.63;;;9.92;92.23
59043;BME280;44826;51.596;5.624;2022-12-24T11:15:59;101154.00;;;9.90;92.24
59043;BME280;44826;51.596;5.624;2022-12-24T11:18:26;101166.13;;;9.91;92.17
59043;BME280;44826;51.596;5.624;2022-12-24T11:20:51;101168.66;;;9.94;92.14
59043;BME280;44826;51.596;5.624;2022-12-24T11:23:17;101158.25;;;9.96;91.47
59043;BME280;44826;51.596;5.624;2022-12-24T11:25:47;101159.03;;;9.99;91.43
59043;BME280;44826;51.596;5.624;2022-12-24T11:28:26;101162.41;;;10.05;91.75
59043;BME280;44826;51.596;5.624;2022-12-24T11:33:30;101171.72;;;10.16;91.11
59043;BME280;44826;51.596;5.624;2022-12-24T11:36:01;101164.75;;;10.18;90.92
59043;BME280;44826;51.596;5.624;2022-12-24T11:38:28;101171.63;;;10.23;90.62
59043;BME280;44826;51.596;5.624;2022-12-24T11:41:09;101176.69;;;10.29;90.14
59043;BME280;44826;51.596;5.624;2022-12-24T11:43:46;101164.53;;;10.31;89.73
59043;BME280;44826;51.596;5.624;2022-12-24T11:46:18;101171.47;;;10.30;89.00
59043;BME280;44826;51.596;5.624;2022-12-24T11:48:45;101182.78;;;10.28;88.81
59043;BME280;44826;51.596;5.624;2022-12-24T11:51:23;101165.50;;;10.25;89.02
59043;BME280;44826;51.596;5.624;2022-12-24T11:53:55;101171.53;;;10.26;88.80
59043;BME280;44826;51.596;5.624;2022-12-24T11:56:35;101168.06;;;10.27;89.08
59043;BME280;44826;51.596;5.624;2022-12-24T11:59:37;101178.41;;;10.30;89.65
59043;BME280;44826;51.596;5.624;2022-12-24T12:02:25;101173.09;;;10.35;89.38
59043;BME280;44826;51.596;5.624;2022-12-24T12:04:57;101178.34;;;10.33;88.30
59043;BME280;44826;51.596;5.624;2022-12-24T12:07:27;101175.78;;;10.31;87.89
59043;BME280;44826;51.596;5.624;2022-12-24T12:10:10;101174.09;;;10.29;88.65
59043;BME280;44826;51.596;5.624;2022-12-24T12:12:41;101179.34;;;10.27;88.13
59043;BME280;44826;51.596;5.624;2022-12-24T12:18:07;101185.38;;;10.29;88.83
59043;BME280;44826;51.596;5.624;2022-12-24T12:20:37;101183.56;;;10.33;87.83
59043;BME280;44826;51.596;5.624;2022-12-24T12:23:28;101180.88;;;10.39;88.02
59043;BME280;44826;51.596;5.624;2022-12-24T12:25:57;101179.16;;;10.38;87.14
59043;BME280;44826;51.596;5.624;2022-12-24T12:28:43;101193.00;;;10.39;88.13
59043;BME280;44826;51.596;5.624;2022-12-24T12:31:40;101206.00;;;10.40;87.92
59043;BME280;44826;51.596;5.624;2022-12-24T12:34:10;101202.53;;;10.40;86.34
59043;BME280;44826;51.596;5.624;2022-12-24T12:36:57;101195.50;;;10.43;87.29
59043;BME280;44826;51.596;5.624;2022-12-24T12:39:24;101194.66;;;10.43;85.79
59043;BME280;44826;51.596;5.624;2022-12-24T12:50:31;101209.13;;;10.58;85.14
59043;BME280;44826;51.596;5.624;2022-12-24T12:55:52;101212.63;;;10.57;85.02
59043;BME280;44826;51.596;5.624;2022-12-24T12:58:30;101217.88;;;10.54;83.45
59043;BME280;44826;51.596;5.624;2022-12-24T13:01:04;101216.22;;;10.50;83.52
59043;BME280;44826;51.596;5.624;2022-12-24T13:03:49;101226.69;;;10.46;84.33
59043;BME280;44826;51.596;5.624;2022-12-24T13:06:25;101231.91;;;10.45;83.83
59043;BME280;44826;51.596;5.624;2022-12-24T13:08:57;101231.94;;;10.43;83.50
59043;BME280;44826;51.596;5.624;2022-12-24T13:18:02;101243.38;;;10.33;84.91
59043;BME280;44826;51.596;5.624;2022-12-24T13:20:35;101236.44;;;10.32;84.51
59043;BME280;44826;51.596;5.624;2022-12-24T13:23:18;101240.72;;;10.36;85.13
59043;BME280;44826;51.596;5.624;2022-12-24T13:25:51;101233.81;;;10.35;84.71
59043;BME280;44826;51.596;5.624;2022-12-24T13:28:30;101233.81;;;10.35;84.73
59043;BME280;44826;51.596;5.624;2022-12-24T13:38:31;101250.47;;;10.23;83.13
59043;BME280;44826;51.596;5.624;2022-12-24T13:44:13;101254.69;;;10.30;83.47
59043;BME280;44826;51.596;5.624;2022-12-24T13:47:03;101246.81;;;10.35;82.73
59043;BME280;44826;51.596;5.624;2022-12-24T13:49:44;101250.13;;;10.43;82.34
59043;BME280;44826;51.596;5.624;2022-12-24T13:54:37;101251.50;;;10.63;81.92
59043;BME280;44826;51.596;5.624;2022-12-24T13:57:31;101259.00;;;10.80;82.63
59043;BME280;44826;51.596;5.624;2022-12-24T14:00:07;101254.38;;;10.95;81.49
59043;BME280;44826;51.596;5.624;2022-12-24T14:02:43;101261.91;;;11.08;80.65
59043;BME280;44826;51.596;5.624;2022-12-24T14:05:29;101263.47;;;11.16;81.20
59043;BME280;44826;51.596;5.624;2022-12-24T14:07:57;101258.31;;;11.14;80.18
59043;BME280;44826;51.596;5.624;2022-12-24T14:10:41;101271.31;;;11.14;80.09
59043;BME280;44826;51.596;5.624;2022-12-24T14:16:04;101269.56;;;11.15;79.38